sensor_id;sensor_type;location;lat;lon;timestamp;pressure;altitude;pressure_sealevel;temperature;humidity
28626;BME280;18905;42.668;23.364;2023-05-24T00:02:18;94905.31;;;14.13;100.00
28626;BME280;18905;42.668;23.364;2023-05-24T00:04:44;94917.53;;;14.19;100.00
28626;BME280;18905;42.668;23.364;2023-05-24T00:07:09;94904.28;;;14.17;100.00
28626;BME280;18905;42.668;23.364;2023-05-24T00:09:35;94910.66;;;14.21;100.00
28626;BME280;18905;42.668;23.364;2023-05-24T00:12:00;94902.16;;;14.11;100.00
28626;BME280;18905;42.668;23.364;2023-05-24T00:14:26;94886.88;;;14.06;100.00
28626;BME280;18905;42.668;23.364;2023-05-24T00:16:51;94897.09;;;13.97;100.00
28626;BME280;18905;42.668;23.364;2023-05-24T00:19:17;94898.22;;;13.96;100.00
28626;BME280;18905;42.668;23.364;2023-05-24T00:21:46;94882.75;;;13.85;100.00
28626;BME280;18905;42.668;23.364;2023-05-24T00:24:12;94899.38;;;13.95;100.00
28626;BME280;18905;42.668;23.364;2023-05-24T00:26:38;94899.38;;;13.95;100.00
28626;BME280;18905;42.668;23.364;2023-05-24T00:29:03;94907.41;;;13.92;100.00
28626;BME280;18905;42.668;23.364;2023-05-24T00:31:28;94911.13;;;13.99;100.00
28626;BME280;18905;42.668;23.364;2023-05-24T00:33:54;94913.16;;;14.02;100.00
28626;BME280;18905;42.668;23.364;2023-05-24T00:36:19;94909.88;;;13.97;100.00
28626;BME280;18905;42.668;23.364;2023-05-24T00:38:45;94898.03;;;13.89;100.00
28626;BME280;18905;42.668;23.364;2023-05-24T00:41:10;94892.38;;;13.82;100.00
28626;BME280;18905;42.668;23.364;2023-05-24T00:43:36;94911.94;;;13.88;100.00
28626;BME280;18905;42.668;23.364;2023-05-24T00:46:13;94910.03;;;13.88;100.00
28626;BME280;18905;42.668;23.364;2023-05-24T00:48:40;94907.31;;;13.88;100.00
28626;BME280;18905;42.668;23.364;2023-05-24T00:51:06;94895.09;;;13.82;100.00
28626;BME280;18905;42.668;23.364;2023-05-24T00:53:32;94908.41;;;13.87;100.00
28626;BME280;18905;42.668;23.364;2023-05-24T00:55:59;94903.00;;;13.87;100.00
28626;BME280;18905;42.668;23.364;2023-05-24T00:58:27;94902.66;;;13.89;100.00
28626;BME280;18905;42.668;23.364;2023-05-24T01:00:58;94900.63;;;13.86;100.00
28626;BME280;18905;42.668;23.364;2023-05-24T01:03:24;94908.66;;;13.82;100.00
28626;BME280;18905;42.668;23.364;2023-05-24T01:05:51;94910.13;;;13.80;100.00
28626;BME280;18905;42.668;23.364;2023-05-24T01:09:08;94908.78;;;13.74;100.00
28626;BME280;18905;42.668;23.364;2023-05-24T01:12:06;94904.50;;;13.73;100.00
28626;BME280;18905;42.668;23.364;2023-05-24T01:17:29;94911.59;;;13.65;100.00
28626;BME280;18905;42.668;23.364;2023-05-24T01:20:02;94916.03;;;13.70;100.00
28626;BME280;18905;42.668;23.364;2023-05-24T01:27:52;94922.16;;;13.55;100.00
28626;BME280;18905;42.668;23.364;2023-05-24T01:30:18;94931.97;;;13.59;100.00
28626;BME280;18905;42.668;23.364;2023-05-24T01:32:45;94921.81;;;13.44;100.00
28626;BME280;18905;42.668;23.364;2023-05-24T01:35:11;94922.72;;;13.48;100.00
28626;BME280;18905;42.668;23.364;2023-05-24T01:37:36;94909.03;;;13.57;100.00
28626;BME280;18905;42.668;23.364;2023-05-24T01:40:02;94922.50;;;14.29;100.00
28626;BME280;18905;42.668;23.364;2023-05-24T01:45:11;94922.28;;;15.04;100.00
28626;BME280;18905;42.668;23.364;2023-05-24T01:50:27;94912.47;;;15.62;100.00
28626;BME280;18905;42.668;23.364;2023-05-24T01:52:58;94925.09;;;15.85;100.00
28626;BME280;18905;42.668;23.364;2023-05-24T01:55:26;94926.53;;;15.98;100.00
28626;BME280;18905;42.668;23.364;2023-05-24T01:57:57;94915.38;;;16.03;100.00
28626;BME280;18905;42.668;23.364;2023-05-24T02:00:25;94887.94;;;15.77;100.00
28626;BME280;18905;42.668;23.364;2023-05-24T02:02:51;94919.53;;;16.16;100.00
28626;BME280;18905;42.668;23.364;2023-05-24T02:05:16;94919.63;;;17.37;100.00
28626;BME280;18905;42.668;23.364;2023-05-24T02:07:42;94899.44;;;16.97;100.00
28626;BME280;18905;42.668;23.364;2023-05-24T02:10:07;94906.84;;;16.77;100.00
28626;BME280;18905;42.668;23.364;2023-05-24T02:12:33;94912.59;;;15.84;100.00
28626;BME280;18905;42.668;23.364;2023-05-24T02:14:58;94914.00;;;14.85;100.00
28626;BME280;18905;42.668;23.364;2023-05-24T02:17:24;94891.94;;;14.59;100.00
28626;BME280;18905;42.668;23.364;2023-05-24T02:19:51;94906.56;;;14.55;100.00
28626;BME280;18905;42.668;23.364;2023-05-24T02:22:16;94905.81;;;14.42;100.00
28626;BME280;18905;42.668;23.364;2023-05-24T02:24:42;94900.69;;;14.25;100.00
28626;BME280;18905;42.668;23.364;2023-05-24T02:27:07;94906.09;;;14.13;100.00
28626;BME280;18905;42.668;23.364;2023-05-24T02:29:33;94901.59;;;14.05;100.00
28626;BME280;18905;42.668;23.364;2023-05-24T02:31:58;94890.13;;;13.84;100.00
28626;BME280;18905;42.668;23.364;2023-05-24T02:34:24;94905.28;;;13.85;100.00
28626;BME280;18905;42.668;23.364;2023-05-24T02:36:50;94898.75;;;13.62;100.00
28626;BME280;18905;42.668;23.364;2023-05-24T02:39:15;94898.75;;;13.50;100.00
28626;BME280;18905;42.668;23.364;2023-05-24T02:41:41;94904.72;;;13.44;100.00
28626;BME280;18905;42.668;23.364;2023-05-24T02:44:07;94902.25;;;13.39;100.00
28626;BME280;18905;42.668;23.364;2023-05-24T02:46:32;94899.44;;;13.35;100.00
28626;BME280;18905;42.668;23.364;2023-05-24T02:48:58;94908.72;;;13.34;100.00
28626;BME280;18905;42.668;23.364;2023-05-24T02:51:23;94893.78;;;13.28;100.00
28626;BME280;18905;42.668;23.364;2023-05-24T02:53:49;94911.97;;;13.28;100.00
28626;BME280;18905;42.668;23.364;2023-05-24T02:56:15;94906.44;;;13.24;100.00
28626;BME280;18905;42.668;23.364;2023-05-24T02:58:43;94896.72;;;13.11;100.00
28626;BME280;18905;42.668;23.364;2023-05-24T03:01:10;94896.25;;;13.09;100.00
28626;BME280;18905;42.668;23.364;2023-05-24T03:03:37;94895.13;;;13.10;100.00
28626;BME280;18905;42.668;23.364;2023-05-24T03:06:03;94897.50;;;13.12;100.00
28626;BME280;18905;42.668;23.364;2023-05-24T03:08:28;94905.75;;;13.15;100.00
28626;BME280;18905;42.668;23.364;2023-05-24T03:10:54;94920.00;;;13.48;100.00
28626;BME280;18905;42.668;23.364;2023-05-24T03:13:19;94930.94;;;13.88;100.00
28626;BME280;18905;42.668;23.364;2023-05-24T03:15:44;94923.72;;;14.31;100.00
28626;BME280;18905;42.668;23.364;2023-05-24T03:18:10;94903.00;;;14.66;100.00
28626;BME280;18905;42.668;23.364;2023-05-24T03:20:36;94918.16;;;15.26;100.00
28626;BME280;18905;42.668;23.364;2023-05-24T03:23:01;94897.56;;;15.56;100.00
28626;BME280;18905;42.668;23.364;2023-05-24T03:25:27;94918.25;;;15.76;100.00
28626;BME280;18905;42.668;23.364;2023-05-24T03:27:52;94912.38;;;15.74;100.00
28626;BME280;18905;42.668;23.364;2023-05-24T03:30:17;94915.50;;;15.91;100.00
28626;BME280;18905;42.668;23.364;2023-05-24T03:32:43;94912.22;;;16.01;100.00
28626;BME280;18905;42.668;23.364;2023-05-24T03:35:08;94921.16;;;16.17;100.00
28626;BME280;18905;42.668;23.364;2023-05-24T03:37:36;94911.88;;;16.22;100.00
28626;BME280;18905;42.668;23.364;2023-05-24T03:40:01;94935.13;;;16.35;100.00
28626;BME280;18905;42.668;23.364;2023-05-24T03:42:28;94934.28;;;16.31;100.00
28626;BME280;18905;42.668;23.364;2023-05-24T03:44:54;94927.66;;;16.13;100.00
28626;BME280;18905;42.668;23.364;2023-05-24T03:47:19;94929.81;;;15.88;100.00
28626;BME280;18905;42.668;23.364;2023-05-24T03:49:45;94932.13;;;15.55;100.00
28626;BME280;18905;42.668;23.364;2023-05-24T03:52:11;94926.31;;;15.26;100.00
28626;BME280;18905;42.668;23.364;2023-05-24T03:54:36;94929.56;;;15.31;100.00
28626;BME280;18905;42.668;23.364;2023-05-24T03:57:01;94929.50;;;15.28;100.00
28626;BME280;18905;42.668;23.364;2023-05-24T03:59:27;94919.66;;;15.23;100.00
28626;BME280;18905;42.668;23.364;2023-05-24T04:01:52;94920.06;;;15.25;100.00
28626;BME280;18905;42.668;23.364;2023-05-24T04:04:18;94925.16;;;15.27;100.00
28626;BME280;18905;42.668;23.364;2023-05-24T04:06:44;94935.16;;;15.23;100.00
28626;BME280;18905;42.668;23.364;2023-05-24T04:09:09;94938.25;;;15.21;100.00
28626;BME280;18905;42.668;23.364;2023-05-24T04:11:34;94942.03;;;15.32;100.00
28626;BME280;18905;42.668;23.364;2023-05-24T04:14:00;94943.31;;;15.23;100.00
28626;BME280;18905;42.668;23.364;2023-05-24T04:16:26;94918.75;;;15.04;100.00
28626;BME280;18905;42.668;23.364;2023-05-24T04:18:55;94935.94;;;15.08;100.00
28626;BME280;18905;42.668;23.364;2023-05-24T04:21:21;94942.97;;;15.24;100.00
28626;BME280;18905;42.668;23.364;2023-05-24T04:23:47;94932.13;;;15.40;100.00
28626;BME280;18905;42.668;23.364;2023-05-24T04:26:12;94945.75;;;15.71;100.00
28626;BME280;18905;42.668;23.364;2023-05-24T04:28:38;94948.28;;;15.64;100.00
28626;BME280;18905;42.668;23.364;2023-05-24T04:31:04;94945.31;;;15.53;100.00
28626;BME280;18905;42.668;23.364;2023-05-24T04:33:34;94943.72;;;15.52;100.00
28626;BME280;18905;42.668;23.364;2023-05-24T04:35:59;94949.59;;;15.85;100.00
28626;BME280;18905;42.668;23.364;2023-05-24T04:38:28;94924.69;;;16.02;100.00
28626;BME280;18905;42.668;23.364;2023-05-24T04:40:59;94938.19;;;16.68;100.00
28626;BME280;18905;42.668;23.364;2023-05-24T04:43:24;94950.66;;;17.07;100.00
28626;BME280;18905;42.668;23.364;2023-05-24T04:45:53;94952.84;;;16.79;100.00
28626;BME280;18905;42.668;23.364;2023-05-24T04:48:22;94958.97;;;17.55;100.00
28626;BME280;18905;42.668;23.364;2023-05-24T04:50:52;94962.19;;;18.09;100.00
28626;BME280;18905;42.668;23.364;2023-05-24T04:53:19;94960.78;;;18.74;100.00
28626;BME280;18905;42.668;23.364;2023-05-24T04:55:44;94971.56;;;19.23;100.00
28626;BME280;18905;42.668;23.364;2023-05-24T04:58:10;94965.56;;;19.50;96.86
28626;BME280;18905;42.668;23.364;2023-05-24T05:00:35;94960.38;;;19.78;92.76
28626;BME280;18905;42.668;23.364;2023-05-24T05:03:01;94969.28;;;20.12;87.55
28626;BME280;18905;42.668;23.364;2023-05-24T05:05:26;94967.03;;;20.24;85.52
28626;BME280;18905;42.668;23.364;2023-05-24T05:07:51;94961.22;;;20.33;83.08
28626;BME280;18905;42.668;23.364;2023-05-24T05:10:17;94966.41;;;20.45;84.25
28626;BME280;18905;42.668;23.364;2023-05-24T05:12:42;94971.44;;;21.08;80.40
28626;BME280;18905;42.668;23.364;2023-05-24T05:15:09;94962.06;;;21.23;78.43
28626;BME280;18905;42.668;23.364;2023-05-24T05:17:34;94969.66;;;21.64;74.90
28626;BME280;18905;42.668;23.364;2023-05-24T05:19:59;94961.41;;;21.75;71.37
28626;BME280;18905;42.668;23.364;2023-05-24T05:22:25;94966.16;;;21.78;71.85
28626;BME280;18905;42.668;23.364;2023-05-24T05:24:51;94972.25;;;21.19;74.57
28626;BME280;18905;42.668;23.364;2023-05-24T05:27:16;94967.47;;;20.91;76.15
28626;BME280;18905;42.668;23.364;2023-05-24T05:29:41;94958.69;;;20.71;79.39
28626;BME280;18905;42.668;23.364;2023-05-24T05:32:07;94949.59;;;20.03;83.61
28626;BME280;18905;42.668;23.364;2023-05-24T05:34:32;94956.28;;;20.05;83.38
28626;BME280;18905;42.668;23.364;2023-05-24T05:36:57;94973.66;;;20.23;83.24
28626;BME280;18905;42.668;23.364;2023-05-24T05:39:23;94973.34;;;20.97;79.32
28626;BME280;18905;42.668;23.364;2023-05-24T05:41:48;94960.47;;;21.04;79.33
28626;BME280;18905;42.668;23.364;2023-05-24T05:44:14;94966.56;;;20.76;80.71
28626;BME280;18905;42.668;23.364;2023-05-24T05:46:39;94975.16;;;20.71;82.11
28626;BME280;18905;42.668;23.364;2023-05-24T05:49:07;94971.50;;;21.18;80.29
28626;BME280;18905;42.668;23.364;2023-05-24T05:51:33;94975.91;;;21.65;76.30
28626;BME280;18905;42.668;23.364;2023-05-24T05:53:59;94966.16;;;21.78;76.90
28626;BME280;18905;42.668;23.364;2023-05-24T05:56:24;94970.50;;;22.10;73.68
28626;BME280;18905;42.668;23.364;2023-05-24T05:58:51;94978.34;;;21.91;75.38
28626;BME280;18905;42.668;23.364;2023-05-24T06:01:17;94983.00;;;22.81;70.82
28626;BME280;18905;42.668;23.364;2023-05-24T06:03:42;94964.00;;;23.25;67.08
28626;BME280;18905;42.668;23.364;2023-05-24T06:06:07;94969.88;;;23.27;67.05
28626;BME280;18905;42.668;23.364;2023-05-24T06:08:33;94982.50;;;23.11;67.22
28626;BME280;18905;42.668;23.364;2023-05-24T06:11:00;94988.06;;;23.04;68.17
28626;BME280;18905;42.668;23.364;2023-05-24T06:13:25;94988.84;;;22.94;66.68
28626;BME280;18905;42.668;23.364;2023-05-24T06:15:52;94980.22;;;22.81;65.45
28626;BME280;18905;42.668;23.364;2023-05-24T06:18:18;94987.00;;;21.96;69.08
28626;BME280;18905;42.668;23.364;2023-05-24T06:20:43;94965.72;;;22.81;68.80
28626;BME280;18905;42.668;23.364;2023-05-24T06:23:08;94976.41;;;23.61;62.84
28626;BME280;18905;42.668;23.364;2023-05-24T06:25:34;94979.63;;;24.11;62.70
28626;BME280;18905;42.668;23.364;2023-05-24T06:27:59;94982.59;;;24.34;61.06
28626;BME280;18905;42.668;23.364;2023-05-24T06:30:25;94864.06;;;23.21;62.90
28626;BME280;18905;42.668;23.364;2023-05-24T06:32:50;94960.44;;;23.28;65.25
28626;BME280;18905;42.668;23.364;2023-05-24T06:35:16;94981.63;;;23.42;64.76
28626;BME280;18905;42.668;23.364;2023-05-24T06:37:41;94977.50;;;23.71;63.54
28626;BME280;18905;42.668;23.364;2023-05-24T06:40:07;94974.38;;;23.69;63.79
28626;BME280;18905;42.668;23.364;2023-05-24T06:42:37;94961.09;;;23.50;65.46
28626;BME280;18905;42.668;23.364;2023-05-24T06:45:03;94971.59;;;23.72;65.00
28626;BME280;18905;42.668;23.364;2023-05-24T06:47:29;94964.28;;;23.45;65.25
28626;BME280;18905;42.668;23.364;2023-05-24T06:49:54;94972.91;;;23.50;64.80
28626;BME280;18905;42.668;23.364;2023-05-24T06:52:21;94977.72;;;23.32;66.10
28626;BME280;18905;42.668;23.364;2023-05-24T06:54:47;94977.81;;;23.04;66.92
28626;BME280;18905;42.668;23.364;2023-05-24T06:57:13;94953.13;;;23.69;64.65
28626;BME280;18905;42.668;23.364;2023-05-24T06:59:38;94976.09;;;23.42;65.74
28626;BME280;18905;42.668;23.364;2023-05-24T07:02:03;94972.59;;;24.03;63.42
28626;BME280;18905;42.668;23.364;2023-05-24T07:04:29;94968.16;;;23.54;64.33
28626;BME280;18905;42.668;23.364;2023-05-24T07:06:54;94951.69;;;23.40;64.91
28626;BME280;18905;42.668;23.364;2023-05-24T07:09:19;94955.47;;;23.67;63.57
28626;BME280;18905;42.668;23.364;2023-05-24T07:11:45;94967.41;;;23.47;65.90
28626;BME280;18905;42.668;23.364;2023-05-24T07:14:11;94946.16;;;23.47;65.70
28626;BME280;18905;42.668;23.364;2023-05-24T07:16:36;94964.03;;;23.08;67.13
28626;BME280;18905;42.668;23.364;2023-05-24T07:19:02;94959.47;;;22.56;73.00
28626;BME280;18905;42.668;23.364;2023-05-24T07:21:27;94962.16;;;22.80;73.17
28626;BME280;18905;42.668;23.364;2023-05-24T07:23:52;94960.94;;;22.92;71.00
28626;BME280;18905;42.668;23.364;2023-05-24T07:26:18;94956.28;;;22.78;72.75
28626;BME280;18905;42.668;23.364;2023-05-24T07:28:43;94974.75;;;22.78;72.44
28626;BME280;18905;42.668;23.364;2023-05-24T07:31:09;94970.41;;;22.84;73.93
28626;BME280;18905;42.668;23.364;2023-05-24T07:33:37;94958.94;;;22.99;72.10
28626;BME280;18905;42.668;23.364;2023-05-24T07:36:06;94973.19;;;22.73;75.03
28626;BME280;18905;42.668;23.364;2023-05-24T07:38:33;94982.59;;;22.90;75.34
28626;BME280;18905;42.668;23.364;2023-05-24T07:40:59;94974.69;;;23.02;74.23
28626;BME280;18905;42.668;23.364;2023-05-24T07:43:25;94974.63;;;23.27;73.42
28626;BME280;18905;42.668;23.364;2023-05-24T07:45:51;94969.09;;;23.23;73.86
28626;BME280;18905;42.668;23.364;2023-05-24T07:48:18;94971.78;;;24.06;69.96
28626;BME280;18905;42.668;23.364;2023-05-24T07:50:43;94955.13;;;24.20;65.22
28626;BME280;18905;42.668;23.364;2023-05-24T07:53:13;94966.03;;;23.76;68.98
28626;BME280;18905;42.668;23.364;2023-05-24T07:55:39;94965.94;;;23.32;67.62
28626;BME280;18905;42.668;23.364;2023-05-24T07:58:05;94953.13;;;23.69;69.40
28626;BME280;18905;42.668;23.364;2023-05-24T08:00:30;94967.91;;;23.17;68.03
28626;BME280;18905;42.668;23.364;2023-05-24T08:02:58;94966.00;;;23.00;67.54
28626;BME280;18905;42.668;23.364;2023-05-24T08:05:24;94951.78;;;23.16;66.08
28626;BME280;18905;42.668;23.364;2023-05-24T08:07:49;94952.25;;;23.76;64.66
28626;BME280;18905;42.668;23.364;2023-05-24T08:10:15;94947.97;;;24.26;62.78
28626;BME280;18905;42.668;23.364;2023-05-24T08:12:41;94951.19;;;24.17;59.92
28626;BME280;18905;42.668;23.364;2023-05-24T08:15:07;94968.28;;;24.46;57.92
28626;BME280;18905;42.668;23.364;2023-05-24T08:17:33;94964.16;;;25.05;59.26
28626;BME280;18905;42.668;23.364;2023-05-24T08:19:58;94963.81;;;24.62;60.62
28626;BME280;18905;42.668;23.364;2023-05-24T08:22:23;94945.09;;;23.89;63.80
28626;BME280;18905;42.668;23.364;2023-05-24T08:24:49;94949.56;;;24.23;64.94
28626;BME280;18905;42.668;23.364;2023-05-24T08:27:14;94947.97;;;24.70;61.24
28626;BME280;18905;42.668;23.364;2023-05-24T08:29:40;94930.09;;;23.97;56.33
28626;BME280;18905;42.668;23.364;2023-05-24T08:32:05;94927.72;;;23.95;55.92
28626;BME280;18905;42.668;23.364;2023-05-24T08:34:35;94952.06;;;24.51;54.31
28626;BME280;18905;42.668;23.364;2023-05-24T08:37:01;94944.78;;;25.08;56.27
28626;BME280;18905;42.668;23.364;2023-05-24T08:39:26;94950.53;;;24.47;51.85
28626;BME280;18905;42.668;23.364;2023-05-24T08:41:51;94937.09;;;24.52;48.12
28626;BME280;18905;42.668;23.364;2023-05-24T08:44:17;94961.94;;;24.49;46.04
28626;BME280;18905;42.668;23.364;2023-05-24T08:46:43;94937.88;;;24.90;45.10
28626;BME280;18905;42.668;23.364;2023-05-24T08:49:09;94954.22;;;25.11;44.98
28626;BME280;18905;42.668;23.364;2023-05-24T08:51:37;94955.38;;;25.13;46.43
28626;BME280;18905;42.668;23.364;2023-05-24T08:54:04;94952.66;;;25.10;46.16
28626;BME280;18905;42.668;23.364;2023-05-24T08:56:29;94950.31;;;25.42;45.68
28626;BME280;18905;42.668;23.364;2023-05-24T08:58:55;94947.53;;;25.08;46.41
28626;BME280;18905;42.668;23.364;2023-05-24T09:01:23;94937.06;;;25.56;44.65
28626;BME280;18905;42.668;23.364;2023-05-24T09:03:49;94945.47;;;25.76;46.89
28626;BME280;18905;42.668;23.364;2023-05-24T09:06:16;94935.91;;;25.54;44.78
28626;BME280;18905;42.668;23.364;2023-05-24T09:08:42;94945.19;;;25.97;43.98
28626;BME280;18905;42.668;23.364;2023-05-24T09:11:09;94939.59;;;25.14;44.58
28626;BME280;18905;42.668;23.364;2023-05-24T09:13:35;94944.53;;;24.59;44.21
28626;BME280;18905;42.668;23.364;2023-05-24T09:16:01;94950.38;;;24.68;43.34
28626;BME280;18905;42.668;23.364;2023-05-24T09:18:26;94931.97;;;25.21;42.85
28626;BME280;18905;42.668;23.364;2023-05-24T09:20:52;94940.03;;;24.72;42.49
28626;BME280;18905;42.668;23.364;2023-05-24T09:23:18;94953.81;;;25.46;41.99
28626;BME280;18905;42.668;23.364;2023-05-24T09:25:44;94945.78;;;24.51;43.69
28626;BME280;18905;42.668;23.364;2023-05-24T09:28:16;94939.44;;;24.10;44.26
28626;BME280;18905;42.668;23.364;2023-05-24T09:30:57;94935.13;;;24.90;42.65
28626;BME280;18905;42.668;23.364;2023-05-24T09:33:22;94949.66;;;24.94;42.71
28626;BME280;18905;42.668;23.364;2023-05-24T09:35:48;94918.53;;;25.23;42.25
28626;BME280;18905;42.668;23.364;2023-05-24T09:38:17;94926.31;;;25.88;40.75
28626;BME280;18905;42.668;23.364;2023-05-24T09:40:43;94926.38;;;25.58;41.50
28626;BME280;18905;42.668;23.364;2023-05-24T09:43:09;94937.19;;;25.16;41.03
28626;BME280;18905;42.668;23.364;2023-05-24T09:45:42;94937.63;;;26.01;40.57
28626;BME280;18905;42.668;23.364;2023-05-24T09:48:15;94922.22;;;26.23;40.02
28626;BME280;18905;42.668;23.364;2023-05-24T09:50:41;94935.03;;;25.87;40.42
28626;BME280;18905;42.668;23.364;2023-05-24T09:53:09;94935.47;;;26.12;39.18
28626;BME280;18905;42.668;23.364;2023-05-24T09:55:36;94904.53;;;26.17;39.24
28626;BME280;18905;42.668;23.364;2023-05-24T09:58:03;94925.13;;;25.89;40.20
28626;BME280;18905;42.668;23.364;2023-05-24T10:00:32;94935.59;;;25.75;40.43
28626;BME280;18905;42.668;23.364;2023-05-24T10:03:06;94924.97;;;25.47;41.34
28626;BME280;18905;42.668;23.364;2023-05-24T10:05:34;94926.22;;;25.09;41.98
28626;BME280;18905;42.668;23.364;2023-05-24T10:08:01;94930.69;;;25.33;42.32
28626;BME280;18905;42.668;23.364;2023-05-24T10:10:27;94923.97;;;25.87;39.56
28626;BME280;18905;42.668;23.364;2023-05-24T10:12:58;94918.25;;;26.47;39.13
28626;BME280;18905;42.668;23.364;2023-05-24T10:15:24;94923.38;;;26.91;38.90
28626;BME280;18905;42.668;23.364;2023-05-24T10:17:53;94910.00;;;26.20;38.64
28626;BME280;18905;42.668;23.364;2023-05-24T10:20:20;94919.88;;;26.67;37.38
28626;BME280;18905;42.668;23.364;2023-05-24T10:22:51;94909.78;;;26.77;36.60
28626;BME280;18905;42.668;23.364;2023-05-24T10:25:20;94915.91;;;27.07;37.59
28626;BME280;18905;42.668;23.364;2023-05-24T10:27:48;94921.00;;;27.12;38.14
28626;BME280;18905;42.668;23.364;2023-05-24T10:30:41;94913.44;;;27.52;37.50
28626;BME280;18905;42.668;23.364;2023-05-24T10:33:07;94901.94;;;27.69;38.53
28626;BME280;18905;42.668;23.364;2023-05-24T10:35:34;94899.31;;;27.98;36.61
28626;BME280;18905;42.668;23.364;2023-05-24T10:38:06;94907.28;;;27.96;35.66
28626;BME280;18905;42.668;23.364;2023-05-24T10:40:32;94897.91;;;27.90;36.33
28626;BME280;18905;42.668;23.364;2023-05-24T10:42:58;94894.63;;;28.27;37.06
28626;BME280;18905;42.668;23.364;2023-05-24T10:47:49;94887.34;;;28.17;35.20
28626;BME280;18905;42.668;23.364;2023-05-24T10:50:18;94891.34;;;27.64;36.26
28626;BME280;18905;42.668;23.364;2023-05-24T10:52:45;94872.06;;;27.41;36.00
28626;BME280;18905;42.668;23.364;2023-05-24T10:55:11;94872.63;;;27.68;35.57
28626;BME280;18905;42.668;23.364;2023-05-24T10:57:38;94888.00;;;26.98;36.33
28626;BME280;18905;42.668;23.364;2023-05-24T11:03:02;94871.88;;;27.32;35.25
28626;BME280;18905;42.668;23.364;2023-05-24T11:05:35;94874.53;;;27.71;35.47
28626;BME280;18905;42.668;23.364;2023-05-24T11:08:14;94874.13;;;27.37;36.41
28626;BME280;18905;42.668;23.364;2023-05-24T11:10:39;94869.81;;;26.97;36.00
28626;BME280;18905;42.668;23.364;2023-05-24T11:13:08;94873.81;;;26.54;36.09
28626;BME280;18905;42.668;23.364;2023-05-24T11:15:35;94874.56;;;26.12;36.98
28626;BME280;18905;42.668;23.364;2023-05-24T11:20:38;94871.16;;;27.09;36.71
28626;BME280;18905;42.668;23.364;2023-05-24T11:23:07;94859.00;;;27.03;37.01
28626;BME280;18905;42.668;23.364;2023-05-24T11:25:39;94871.84;;;27.52;36.88
28626;BME280;18905;42.668;23.364;2023-05-24T11:28:09;94867.41;;;27.54;37.83
28626;BME280;18905;42.668;23.364;2023-05-24T11:30:41;94866.34;;;27.84;36.07
28626;BME280;18905;42.668;23.364;2023-05-24T11:33:21;94862.63;;;27.00;37.28
28626;BME280;18905;42.668;23.364;2023-05-24T11:35:49;94857.28;;;27.64;37.55
28626;BME280;18905;42.668;23.364;2023-05-24T11:38:15;94849.97;;;27.38;36.77
28626;BME280;18905;42.668;23.364;2023-05-24T11:40:42;94856.75;;;26.78;36.79
28626;BME280;18905;42.668;23.364;2023-05-24T11:43:19;94858.91;;;26.48;37.41
28626;BME280;18905;42.668;23.364;2023-05-24T11:45:48;94851.78;;;26.27;37.67
28626;BME280;18905;42.668;23.364;2023-05-24T11:48:14;94843.78;;;26.52;37.17
28626;BME280;18905;42.668;23.364;2023-05-24T11:50:42;94842.19;;;26.94;37.76
28626;BME280;18905;42.668;23.364;2023-05-24T11:53:09;94846.69;;;26.45;37.92
28626;BME280;18905;42.668;23.364;2023-05-24T11:55:35;94833.63;;;26.03;38.04
28626;BME280;18905;42.668;23.364;2023-05-24T11:58:03;94838.47;;;25.73;38.65
28626;BME280;18905;42.668;23.364;2023-05-24T12:00:30;94814.44;;;25.93;39.32
28626;BME280;18905;42.668;23.364;2023-05-24T12:02:56;94821.53;;;26.17;39.80
28626;BME280;18905;42.668;23.364;2023-05-24T12:05:25;94825.53;;;25.66;39.53
28626;BME280;18905;42.668;23.364;2023-05-24T12:08:02;94828.84;;;26.04;38.53
28626;BME280;18905;42.668;23.364;2023-05-24T12:10:31;94830.38;;;26.08;39.10
28626;BME280;18905;42.668;23.364;2023-05-24T12:12:56;94830.69;;;26.76;38.34
28626;BME280;18905;42.668;23.364;2023-05-24T12:15:22;94839.41;;;26.32;39.12
28626;BME280;18905;42.668;23.364;2023-05-24T12:17:47;94831.59;;;26.27;38.34
28626;BME280;18905;42.668;23.364;2023-05-24T12:20:16;94817.88;;;26.43;39.31
28626;BME280;18905;42.668;23.364;2023-05-24T12:22:50;94818.41;;;26.15;39.77
28626;BME280;18905;42.668;23.364;2023-05-24T12:25:18;94815.84;;;26.66;37.74
28626;BME280;18905;42.668;23.364;2023-05-24T12:27:51;94814.84;;;26.76;37.77
28626;BME280;18905;42.668;23.364;2023-05-24T12:30:21;94814.00;;;26.60;39.74
28626;BME280;18905;42.668;23.364;2023-05-24T12:32:47;94805.63;;;26.83;37.87
28626;BME280;18905;42.668;23.364;2023-05-24T12:35:13;94805.34;;;26.58;39.86
28626;BME280;18905;42.668;23.364;2023-05-24T12:37:38;94785.16;;;26.38;39.14
28626;BME280;18905;42.668;23.364;2023-05-24T12:40:33;94801.72;;;26.18;40.07
28626;BME280;18905;42.668;23.364;2023-05-24T12:42:58;94799.97;;;26.28;38.71
28626;BME280;18905;42.668;23.364;2023-05-24T12:45:25;94802.63;;;26.12;39.60
28626;BME280;18905;42.668;23.364;2023-05-24T12:47:52;94781.66;;;26.34;38.63
28626;BME280;18905;42.668;23.364;2023-05-24T12:50:19;94777.66;;;26.58;37.94
28626;BME280;18905;42.668;23.364;2023-05-24T12:52:45;94798.53;;;26.62;36.85
28626;BME280;18905;42.668;23.364;2023-05-24T12:55:14;94790.94;;;26.43;36.72
28626;BME280;18905;42.668;23.364;2023-05-24T12:57:41;94796.28;;;26.54;36.82
28626;BME280;18905;42.668;23.364;2023-05-24T13:00:08;94784.94;;;26.29;36.88
28626;BME280;18905;42.668;23.364;2023-05-24T13:02:38;94755.75;;;26.24;37.49
28626;BME280;18905;42.668;23.364;2023-05-24T13:05:06;94785.41;;;26.43;37.94
28626;BME280;18905;42.668;23.364;2023-05-24T13:07:32;94779.78;;;26.08;39.04